Time;durP1;ratioP1;P1;durP2;ratioP2;P2;SDS_P1;SDS_P2;PMS_P1;PMS_P2;Temp;Humidity;BMP_temperature;BMP_pressure;BME280_temperature;BME280_humidity;BME280_pressure;Samples;Min_cycle;Max_cycle;Signal;HPM_P1;HPM_P2
2021/06/20 00:00:14;;;;;;;10.20;2.55;;;23.80;73.40;;;;;;5089865;28;20024;-76
2021/06/20 00:02:41;;;;;;;6.93;2.75;;;23.80;73.20;;;;;;5073719;28;20390;-75
2021/06/20 00:05:11;;;;;;;5.60;2.60;;;23.70;73.00;;;;;;5078704;28;20382;-75
2021/06/20 00:07:39;;;;;;;7.60;2.92;;;23.70;73.00;;;;;;5094241;28;20077;-75
2021/06/20 00:10:08;;;;;;;4.88;2.67;;;23.70;72.90;;;;;;5094037;28;20085;-75
2021/06/20 00:12:35;;;;;;;4.90;2.35;;;23.70;72.90;;;;;;5094118;28;20441;-75
2021/06/20 00:15:00;;;;;;;7.88;2.58;;;23.70;72.90;;;;;;5094248;28;20028;-75
2021/06/20 00:17:26;;;;;;;7.40;2.63;;;23.70;72.80;;;;;;5086138;28;20031;-75
2021/06/20 00:19:52;;;;;;;5.57;2.50;;;23.70;72.90;;;;;;5073496;28;20021;-75
2021/06/20 00:22:18;;;;;;;6.60;2.70;;;23.70;72.80;;;;;;5072387;28;20032;-75
2021/06/20 00:24:43;;;;;;;4.05;2.72;;;23.70;72.80;;;;;;5073433;28;20021;-75
2021/06/20 00:27:09;;;;;;;8.32;2.40;;;23.70;72.80;;;;;;5073516;28;20489;-75
2021/06/20 00:29:35;;;;;;;5.53;2.88;;;23.70;72.70;;;;;;5073590;28;20027;-75
2021/06/20 00:32:01;;;;;;;4.07;2.40;;;23.70;72.70;;;;;;5073248;28;20025;-76
2021/06/20 00:34:27;;;;;;;6.03;2.58;;;23.70;72.70;;;;;;5073385;28;20056;-75
2021/06/20 00:36:52;;;;;;;5.57;2.20;;;23.70;72.70;;;;;;5073281;28;20130;-75
2021/06/20 00:39:18;;;;;;;5.63;2.83;;;23.70;72.70;;;;;;5073981;28;20032;-75
2021/06/20 00:41:44;;;;;;;8.25;3.10;;;23.60;72.70;;;;;;5073757;28;20090;-75
2021/06/20 00:44:09;;;;;;;4.75;2.70;;;23.60;72.80;;;;;;5073250;28;20039;-75
2021/06/20 00:46:35;;;;;;;6.45;2.63;;;23.60;72.80;;;;;;5073411;28;20020;-76
2021/06/20 00:49:01;;;;;;;5.80;2.40;;;23.60;72.80;;;;;;5073334;28;20024;-75
2021/06/20 00:51:26;;;;;;;5.80;2.33;;;23.60;72.70;;;;;;5073785;28;20082;-75
2021/06/20 00:53:53;;;;;;;9.68;3.50;;;23.60;72.60;;;;;;5072064;28;20036;-75
2021/06/20 00:56:19;;;;;;;6.32;3.00;;;23.60;72.40;;;;;;5073469;28;20458;-75
2021/06/20 00:58:45;;;;;;;4.65;2.35;;;23.50;72.30;;;;;;5089038;28;20024;-75
2021/06/20 01:01:11;;;;;;;4.40;2.45;;;23.50;72.30;;;;;;5073650;28;20029;-75
2021/06/20 01:03:36;;;;;;;5.50;2.30;;;23.50;72.30;;;;;;5073318;28;20031;-75
2021/06/20 01:06:02;;;;;;;3.50;2.35;;;23.50;72.30;;;;;;5072495;28;20056;-75
2021/06/20 01:08:28;;;;;;;5.50;2.85;;;23.50;72.10;;;;;;5073484;28;20036;-75
2021/06/20 01:10:54;;;;;;;8.60;3.30;;;23.40;71.90;;;;;;5073374;28;20144;-75
2021/06/20 01:13:20;;;;;;;7.50;2.85;;;23.50;72.00;;;;;;5073818;28;20555;-75
2021/06/20 01:15:50;;;;;;;4.50;2.60;;;23.40;71.90;;;;;;5072072;28;20029;-75
2021/06/20 01:18:17;;;;;;;4.30;2.60;;;23.40;71.90;;;;;;5072019;28;20082;-75
2021/06/20 01:20:44;;;;;;;7.68;2.60;;;23.40;71.80;;;;;;5072848;28;20471;-75
2021/06/20 01:23:10;;;;;;;5.30;2.13;;;23.50;72.00;;;;;;5073289;28;20036;-75
2021/06/20 01:25:42;;;;;;;5.00;2.70;;;23.40;71.90;;;;;;5072979;28;20035;-77
2021/06/20 01:28:10;;;;;;;2.97;2.40;;;23.40;71.90;;;;;;5073379;28;20043;-75
2021/06/20 01:30:39;;;;;;;8.27;2.35;;;23.40;71.90;;;;;;5072997;28;20055;-75
2021/06/20 01:33:08;;;;;;;4.60;2.45;;;23.40;71.90;;;;;;5073120;28;20021;-75
2021/06/20 01:35:34;;;;;;;4.07;2.47;;;23.40;71.90;;;;;;5073067;28;20021;-75
2021/06/20 01:38:03;;;;;;;4.28;2.50;;;23.30;72.00;;;;;;5072970;28;20032;-75
2021/06/20 01:40:29;;;;;;;5.85;2.42;;;23.30;71.90;;;;;;5073318;28;20035;-75
2021/06/20 01:42:55;;;;;;;3.88;2.22;;;23.30;71.70;;;;;;5073365;28;20036;-75
2021/06/20 01:45:23;;;;;;;7.25;2.65;;;23.20;71.60;;;;;;5090889;28;20028;-75
2021/06/20 01:47:51;;;;;;;4.93;2.50;;;23.20;71.60;;;;;;5095107;28;20377;-75
2021/06/20 01:50:19;;;;;;;2.70;2.33;;;23.20;71.70;;;;;;5078423;28;20560;-75
2021/06/20 01:52:46;;;;;;;5.20;2.17;;;23.20;71.80;;;;;;5066512;28;20025;-75
2021/06/20 01:55:14;;;;;;;7.43;2.35;;;23.20;71.70;;;;;;5066394;28;20032;-75
2021/06/20 01:57:41;;;;;;;6.30;2.25;;;23.20;71.60;;;;;;5065030;28;20021;-76
2021/06/20 02:00:11;;;;;;;7.20;2.55;;;23.20;71.60;;;;;;5064570;28;20035;-75
2021/06/20 02:02:37;;;;;;;6.95;2.63;;;23.20;71.10;;;;;;5064414;28;20071;-75
2021/06/20 02:05:03;;;;;;;4.57;2.25;;;23.10;70.80;;;;;;5063885;28;20112;-76
2021/06/20 02:07:29;;;;;;;6.80;2.25;;;23.10;70.80;;;;;;5066191;28;20391;-76
2021/06/20 02:09:56;;;;;;;4.53;2.25;;;23.10;70.80;;;;;;5064172;28;20028;-75
2021/06/20 02:12:25;;;;;;;4.68;2.40;;;23.10;70.80;;;;;;5065140;28;20020;-76
2021/06/20 02:14:52;;;;;;;3.58;2.15;;;23.10;70.90;;;;;;5065618;28;20021;-75
2021/06/20 02:17:21;;;;;;;4.35;2.58;;;23.10;71.10;;;;;;5067174;28;20060;-76
2021/06/20 02:19:47;;;;;;;6.05;2.60;;;23.00;71.10;;;;;;5076106;28;20028;-74
2021/06/20 02:22:13;;;;;;;3.72;2.38;;;23.00;71.10;;;;;;5075874;28;20101;-75
2021/06/20 02:24:39;;;;;;;8.70;2.40;;;23.10;71.20;;;;;;5076248;28;20050;-76
2021/06/20 02:27:09;;;;;;;2.75;2.25;;;23.10;70.90;;;;;;5076180;28;20517;-76
2021/06/20 02:29:35;;;;;;;4.80;2.25;;;23.10;70.80;;;;;;5076029;28;20029;-76
2021/06/20 02:32:01;;;;;;;3.83;2.10;;;23.20;70.50;;;;;;5074565;28;20040;-74
2021/06/20 02:34:26;;;;;;;4.85;2.60;;;23.20;70.90;;;;;;5076187;28;20028;-74
2021/06/20 02:36:52;;;;;;;3.20;2.28;;;23.30;70.10;;;;;;5074481;28;20025;-74
2021/06/20 02:39:18;;;;;;;7.57;2.70;;;23.30;69.80;;;;;;5075949;28;20067;-75
2021/06/20 02:41:46;;;;;;;7.18;2.28;;;23.40;69.30;;;;;;5076083;28;20478;-74
2021/06/20 02:44:11;;;;;;;5.88;2.17;;;23.40;68.70;;;;;;5075657;28;20376;-74
2021/06/20 02:46:38;;;;;;;5.03;2.13;;;23.50;68.40;;;;;;5075715;28;20128;-74
2021/06/20 02:49:03;;;;;;;10.27;2.35;;;23.60;68.00;;;;;;5075597;28;20023;-74
2021/06/20 02:51:29;;;;;;;4.07;1.88;;;23.60;67.50;;;;;;5075673;28;20024;-74
2021/06/20 02:53:55;;;;;;;6.30;2.38;;;23.70;67.00;;;;;;5075530;28;20028;-74
2021/06/20 02:56:21;;;;;;;3.53;1.98;;;23.70;66.70;;;;;;5074181;28;20035;-74
2021/06/20 02:58:46;;;;;;;6.25;1.90;;;23.70;66.60;;;;;;5074523;28;20074;-75
2021/06/20 03:01:12;;;;;;;4.43;2.00;;;23.70;66.40;;;;;;5075195;28;20099;-75
2021/06/20 03:03:38;;;;;;;2.42;1.63;;;23.70;65.90;;;;;;5075337;28;20036;-74
2021/06/20 03:06:05;;;;;;;6.70;1.85;;;23.80;65.60;;;;;;5075269;28;20033;-74
2021/06/20 03:08:32;;;;;;;8.45;3.00;;;23.80;65.30;;;;;;5075518;28;20386;-74
2021/06/20 03:10:57;;;;;;;7.70;2.00;;;23.80;65.30;;;;;;5075190;28;20064;-75
2021/06/20 03:13:23;;;;;;;5.90;2.40;;;23.80;65.20;;;;;;5075090;28;20059;-74
2021/06/20 03:15:50;;;;;;;12.65;2.50;;;23.80;65.00;;;;;;5075148;28;20028;-74
2021/06/20 03:18:15;;;;;;;4.18;1.85;;;23.80;64.90;;;;;;5075346;28;20028;-75
2021/06/20 03:20:41;;;;;;;7.00;2.35;;;23.80;64.70;;;;;;5073764;28;20107;-74
2021/06/20 03:23:11;;;;;;;3.40;1.90;;;23.90;64.70;;;;;;5074992;28;20089;-74
2021/06/20 03:25:38;;;;;;;2.17;1.77;;;23.90;64.60;;;;;;5074599;28;20494;-74
2021/06/20 03:28:05;;;;;;;5.53;2.38;;;23.90;64.50;;;;;;5074704;28;20463;-74
2021/06/20 03:30:31;;;;;;;5.53;1.95;;;23.90;64.30;;;;;;5074907;28;20029;-74
2021/06/20 03:32:56;;;;;;;4.88;1.90;;;24.00;64.20;;;;;;5075034;28;20104;-75
2021/06/20 03:35:22;;;;;;;2.90;2.20;;;24.00;64.10;;;;;;5074733;28;20024;-74
2021/06/20 03:37:48;;;;;;;2.42;2.00;;;24.00;64.10;;;;;;5074691;28;20082;-74
2021/06/20 03:40:14;;;;;;;6.53;2.22;;;24.10;64.00;;;;;;5074280;28;20459;-74
2021/06/20 03:42:40;;;;;;;4.35;1.77;;;24.10;63.90;;;;;;5073684;28;20398;-75
2021/06/20 03:45:08;;;;;;;5.90;2.00;;;24.20;63.90;;;;;;5074500;28;20021;-75
2021/06/20 03:47:34;;;;;;;8.35;1.90;;;24.20;63.60;;;;;;5074794;28;20351;-74
2021/06/20 03:50:00;;;;;;;5.10;2.20;;;24.20;63.20;;;;;;5073183;28;20470;-74
2021/06/20 03:52:26;;;;;;;4.60;2.10;;;24.30;63.20;;;;;;5074658;28;20115;-74
2021/06/20 03:54:52;;;;;;;8.77;1.77;;;24.20;63.00;;;;;;5073090;28;20115;-74
2021/06/20 03:57:22;;;;;;;2.88;1.95;;;24.20;62.90;;;;;;5074448;28;20032;-74
2021/06/20 03:59:48;;;;;;;5.43;2.30;;;24.20;62.70;;;;;;5074407;28;20032;-75
2021/06/20 04:02:14;;;;;;;4.10;2.13;;;24.20;62.70;;;;;;5074642;28;20040;-74
2021/06/20 04:04:41;;;;;;;5.45;2.03;;;24.20;62.70;;;;;;5074866;28;20028;-74
2021/06/20 04:07:11;;;;;;;5.90;2.10;;;24.20;62.70;;;;;;5074074;28;20025;-74
2021/06/20 04:09:37;;;;;;;2.95;2.03;;;24.20;62.80;;;;;;5074068;28;20028;-74
2021/06/20 04:12:03;;;;;;;6.35;1.80;;;24.20;62.90;;;;;;5072956;28;20024;-74
2021/06/20 04:14:30;;;;;;;7.43;1.95;;;24.20;63.00;;;;;;5074065;28;20104;-74
2021/06/20 04:16:55;;;;;;;6.32;2.05;;;24.20;63.00;;;;;;5074100;28;20060;-74
2021/06/20 04:19:21;;;;;;;5.78;2.00;;;24.10;62.90;;;;;;5081597;28;20036;-74
2021/06/20 04:21:47;;;;;;;6.97;1.95;;;24.10;62.90;;;;;;5094475;28;20031;-75
2021/06/20 04:24:12;;;;;;;5.00;1.95;;;24.20;62.90;;;;;;5079983;28;20033;-74
2021/06/20 04:26:41;;;;;;;4.63;2.17;;;24.20;62.70;;;;;;5074101;28;20031;-74
2021/06/20 04:29:06;;;;;;;6.57;2.28;;;24.20;62.70;;;;;;5089227;28;20474;-74
2021/06/20 04:31:32;;;;;;;4.82;1.65;;;24.30;62.60;;;;;;5073731;28;20024;-74
2021/06/20 04:33:58;;;;;;;3.35;2.10;;;24.30;62.50;;;;;;5073822;28;20468;-74
2021/06/20 04:36:24;;;;;;;3.80;1.73;;;24.40;62.30;;;;;;5073827;28;20049;-74
2021/06/20 04:38:49;;;;;;;7.32;2.25;;;24.50;62.10;;;;;;5089556;28;20105;-76
2021/06/20 04:41:17;;;;;;;7.85;2.00;;;24.60;61.90;;;;;;5074469;28;20074;-75
2021/06/20 04:46:26;;;;;;;6.25;2.22;;;24.80;61.00;;;;;;5073870;28;20025;-75
2021/06/20 04:48:53;;;;;;;5.38;1.98;;;25.00;60.80;;;;;;5073492;28;20052;-75
2021/06/20 04:51:20;;;;;;;4.65;1.83;;;25.10;60.80;;;;;;5073961;28;20416;-75
2021/06/20 04:53:46;;;;;;;3.13;2.05;;;25.20;60.70;;;;;;5073585;28;20036;-74
2021/06/20 04:56:14;;;;;;;2.90;1.90;;;25.30;60.50;;;;;;5073597;28;20037;-75
2021/06/20 04:58:41;;;;;;;8.32;1.92;;;25.40;60.00;;;;;;5089072;28;20446;-75
2021/06/20 05:01:07;;;;;;;7.38;2.20;;;25.50;59.60;;;;;;5073069;28;20099;-75
2021/06/20 05:03:33;;;;;;;12.05;2.75;;;25.60;59.40;;;;;;5072222;28;20115;-75
2021/06/20 05:05:58;;;;;;;29.73;3.65;;;25.70;59.20;;;;;;5073465;28;20035;-75
2021/06/20 05:08:24;;;;;;;3.25;2.10;;;25.80;59.30;;;;;;5093585;28;20048;-74
2021/06/20 05:10:53;;;;;;;2.33;1.73;;;26.00;59.30;;;;;;5093724;28;20420;-75
2021/06/20 05:13:21;;;;;;;5.65;1.92;;;26.10;58.70;;;;;;5087683;28;20034;-75
2021/06/20 05:15:47;;;;;;;3.72;1.98;;;26.20;58.20;;;;;;5070502;28;20060;-74
2021/06/20 05:18:13;;;;;;;5.00;1.63;;;26.30;58.30;;;;;;5062395;28;20049;-75
2021/06/20 05:20:40;;;;;;;3.05;1.70;;;26.30;58.10;;;;;;5062781;28;20016;-75
2021/06/20 05:23:07;;;;;;;3.85;1.67;;;26.30;57.30;;;;;;5064084;28;20025;-75
2021/06/20 05:25:33;;;;;;;9.23;1.88;;;26.30;56.90;;;;;;5067156;28;20463;-75
2021/06/20 05:27:59;;;;;;;5.47;1.75;;;26.20;56.60;;;;;;5064677;28;20079;-75
2021/06/20 05:30:24;;;;;;;8.82;2.08;;;26.20;56.60;;;;;;5063036;28;20079;-75
2021/06/20 05:32:50;;;;;;;4.72;1.90;;;26.30;56.60;;;;;;5069523;28;20107;-77
2021/06/20 05:35:16;;;;;;;5.03;1.70;;;26.20;56.50;;;;;;5067864;28;20025;-78
2021/06/20 05:37:42;;;;;;;7.80;2.10;;;26.20;56.50;;;;;;5066852;28;20025;-74
2021/06/20 05:40:09;;;;;;;8.43;2.03;;;26.20;56.60;;;;;;5064328;28;20463;-77
2021/06/20 05:42:34;;;;;;;4.00;1.98;;;26.20;56.80;;;;;;5064755;28;20166;-75
2021/06/20 05:45:00;;;;;;;8.15;1.67;;;26.20;56.90;;;;;;5056237;28;20474;-74
2021/06/20 05:47:26;;;;;;;4.43;1.48;;;26.10;57.00;;;;;;5057247;28;20021;-75
2021/06/20 05:49:52;;;;;;;2.40;1.73;;;26.10;57.00;;;;;;5057407;28;20104;-75
2021/06/20 05:52:18;;;;;;;5.95;1.83;;;26.10;57.10;;;;;;5056239;28;20424;-75
2021/06/20 05:54:50;;;;;;;3.30;1.63;;;26.10;57.10;;;;;;5057221;28;20032;-75
2021/06/20 05:57:22;;;;;;;5.45;1.58;;;26.10;57.20;;;;;;5070003;28;20032;-74
2021/06/20 05:59:48;;;;;;;3.90;1.85;;;26.10;57.00;;;;;;5076992;28;20025;-75
2021/06/20 06:02:15;;;;;;;6.68;2.13;;;26.10;56.90;;;;;;5078102;28;20096;-75
2021/06/20 06:04:44;;;;;;;2.58;1.63;;;26.20;57.10;;;;;;5077730;28;20098;-75
2021/06/20 06:07:10;;;;;;;6.35;1.90;;;26.20;56.70;;;;;;5076415;28;20021;-76
2021/06/20 06:09:36;;;;;;;3.60;1.48;;;26.30;56.50;;;;;;5077499;28;20025;-74
2021/06/20 06:12:03;;;;;;;7.63;1.83;;;26.30;56.60;;;;;;5077061;28;20021;-75
2021/06/20 06:14:29;;;;;;;6.10;1.48;;;26.30;56.60;;;;;;5078021;28;20036;-75
2021/06/20 06:16:54;;;;;;;8.73;1.90;;;26.40;56.50;;;;;;5077068;28;20485;-79
2021/06/20 06:19:20;;;;;;;4.13;1.50;;;26.40;56.20;;;;;;5077479;28;20076;-75
2021/06/20 06:21:46;;;;;;;5.82;1.85;;;26.30;56.30;;;;;;5069154;28;20094;-74
2021/06/20 06:24:13;;;;;;;6.00;1.70;;;26.20;56.20;;;;;;5062328;28;20423;-75
2021/06/20 06:26:38;;;;;;;3.42;1.63;;;26.20;56.30;;;;;;5065436;28;20028;-75
2021/06/20 06:29:05;;;;;;;3.35;1.67;;;26.10;56.50;;;;;;5065577;28;20021;-75
2021/06/20 06:31:31;;;;;;;3.42;2.03;;;26.10;56.90;;;;;;5058307;28;20029;-75
2021/06/20 06:33:57;;;;;;;6.07;2.53;;;26.20;57.00;;;;;;5054810;28;20025;-75
2021/06/20 06:36:23;;;;;;;5.07;1.83;;;26.20;56.80;;;;;;5055823;28;20017;-75
2021/06/20 06:38:49;;;;;;;4.65;1.50;;;26.40;57.10;;;;;;5056235;28;20047;-75
2021/06/20 06:41:18;;;;;;;8.30;2.03;;;26.50;57.30;;;;;;5062731;28;20107;-75
2021/06/20 06:43:44;;;;;;;7.75;1.83;;;26.60;57.20;;;;;;5065365;28;20473;-76
2021/06/20 06:46:10;;;;;;;4.65;1.90;;;26.70;56.90;;;;;;5073593;28;20025;-75
2021/06/20 06:48:36;;;;;;;6.43;2.42;;;26.70;56.80;;;;;;5086131;28;20027;-77
2021/06/20 06:51:02;;;;;;;5.10;1.70;;;26.80;56.60;;;;;;5065292;28;20356;-75
2021/06/20 06:53:28;;;;;;;8.13;1.70;;;26.90;56.40;;;;;;5064226;28;20035;-75
2021/06/20 06:55:54;;;;;;;5.88;1.50;;;27.00;56.10;;;;;;5062513;28;20036;-77
2021/06/20 06:58:20;;;;;;;9.10;1.90;;;27.10;55.60;;;;;;5075030;28;20060;-75
2021/06/20 07:00:46;;;;;;;7.47;1.98;;;27.20;55.60;;;;;;5075883;28;20056;-75
2021/06/20 07:03:13;;;;;;;7.22;1.85;;;27.30;55.80;;;;;;5075721;28;20110;-76
2021/06/20 07:05:39;;;;;;;5.80;2.25;;;27.30;55.70;;;;;;5075169;28;20386;-75
2021/06/20 07:08:05;;;;;;;6.78;1.77;;;27.40;55.80;;;;;;5075446;28;20028;-75
2021/06/20 07:10:31;;;;;;;7.55;2.13;;;27.40;55.70;;;;;;5074181;28;20033;-76
2021/06/20 07:12:57;;;;;;;6.65;2.05;;;27.40;55.60;;;;;;5074852;28;20032;-75
2021/06/20 07:15:24;;;;;;;10.27;2.33;;;27.40;55.60;;;;;;5074947;28;20360;-75
2021/06/20 07:17:50;;;;;;;4.25;1.85;;;27.40;55.30;;;;;;5075585;28;20081;-75
2021/06/20 07:20:16;;;;;;;10.75;2.47;;;27.40;55.00;;;;;;5070994;28;20059;-75
2021/06/20 07:22:45;;;;;;;5.65;2.30;;;27.40;54.70;;;;;;5075127;28;20036;-75
2021/06/20 07:25:15;;;;;;;9.30;2.00;;;27.50;54.40;;;;;;5075152;28;20020;-75
2021/06/20 07:27:41;;;;;;;2.58;1.90;;;27.50;54.60;;;;;;5075313;28;20033;-75
2021/06/20 07:30:11;;;;;;;9.40;2.08;;;27.50;55.00;;;;;;5075015;28;20028;-75
2021/06/20 07:32:37;;;;;;;5.93;1.92;;;27.60;55.10;;;;;;5075278;28;20477;-75
2021/06/20 07:35:04;;;;;;;10.57;2.55;;;27.60;55.00;;;;;;5074603;28;20035;-75
2021/06/20 07:37:31;;;;;;;5.28;2.50;;;27.70;54.60;;;;;;5074887;28;20465;-75
2021/06/20 07:39:56;;;;;;;7.43;2.58;;;27.80;54.70;;;;;;5074638;28;20035;-76
2021/06/20 07:42:22;;;;;;;8.10;2.28;;;27.80;54.60;;;;;;5074293;28;20103;-76
2021/06/20 07:44:48;;;;;;;9.23;2.03;;;27.90;54.60;;;;;;5074264;28;20055;-75
2021/06/20 07:47:14;;;;;;;9.00;2.50;;;28.00;54.90;;;;;;5074678;28;20486;-75
2021/06/20 07:49:39;;;;;;;7.13;2.13;;;28.10;54.80;;;;;;5074294;28;20025;-76
2021/06/20 07:52:05;;;;;;;8.05;1.90;;;28.20;54.50;;;;;;5074257;28;20024;-75
2021/06/20 07:54:31;;;;;;;4.70;1.98;;;28.20;54.10;;;;;;5074142;28;20178;-76
2021/06/20 07:56:57;;;;;;;5.05;2.33;;;28.20;54.10;;;;;;5073590;28;20039;-75
2021/06/20 07:59:22;;;;;;;8.45;1.80;;;28.30;54.00;;;;;;5074377;28;20058;-75
2021/06/20 08:01:48;;;;;;;8.82;2.20;;;28.30;53.60;;;;;;5075065;28;20135;-75
2021/06/20 08:04:14;;;;;;;9.07;2.08;;;28.30;53.50;;;;;;5073752;28;20085;-75
2021/06/20 08:06:39;;;;;;;7.85;2.63;;;28.40;53.30;;;;;;5073912;28;20025;-76
2021/06/20 08:09:05;;;;;;;6.20;2.10;;;28.40;53.60;;;;;;5074058;28;20115;-77
2021/06/20 08:11:33;;;;;;;7.93;2.25;;;28.50;52.70;;;;;;5072642;28;20048;-76
2021/06/20 08:14:04;;;;;;;6.82;1.95;;;28.60;52.30;;;;;;5074094;28;20028;-77
2021/06/20 08:16:31;;;;;;;6.95;2.35;;;28.70;52.00;;;;;;5074017;28;20105;-76
2021/06/20 08:18:56;;;;;;;12.18;2.22;;;28.80;52.20;;;;;;5073731;28;20017;-76
2021/06/20 08:21:22;;;;;;;15.52;2.60;;;28.80;52.10;;;;;;5073753;28;20459;-76
2021/06/20 08:23:49;;;;;;;11.65;2.10;;;29.00;51.80;;;;;;5073838;28;20040;-75
2021/06/20 08:26:15;;;;;;;12.48;2.33;;;29.10;51.40;;;;;;5073708;28;20027;-76
2021/06/20 08:28:41;;;;;;;5.90;1.92;;;29.30;51.50;;;;;;5073872;28;20032;-75
2021/06/20 08:31:07;;;;;;;13.43;2.30;;;29.60;51.50;;;;;;5073535;28;20020;-75
2021/06/20 08:33:34;;;;;;;12.15;2.15;;;29.70;50.90;;;;;;5073256;28;20546;-76
2021/06/20 08:36:00;;;;;;;9.90;2.70;;;29.90;50.30;;;;;;5076834;28;20083;-78
2021/06/20 08:38:25;;;;;;;10.50;2.20;;;30.10;49.90;;;;;;5094037;28;20035;-76
2021/06/20 08:40:55;;;;;;;8.88;2.95;;;30.40;49.50;;;;;;5093300;28;20032;-75
2021/06/20 08:43:21;;;;;;;11.57;2.30;;;30.70;49.30;;;;;;5083405;28;20036;-76
2021/06/20 08:45:54;;;;;;;8.30;2.67;;;31.00;49.40;;;;;;5089792;28;20367;-76
2021/06/20 08:48:20;;;;;;;11.02;2.63;;;31.20;48.90;;;;;;5093413;28;20602;-75
2021/06/20 08:50:49;;;;;;;9.95;2.30;;;31.40;48.60;;;;;;5093742;28;20074;-76
2021/06/20 08:53:20;;;;;;;5.45;2.05;;;31.70;48.00;;;;;;5093722;28;20089;-75
2021/06/20 08:55:46;;;;;;;8.30;1.70;;;32.10;47.60;;;;;;5093301;28;20048;-77
2021/06/20 08:58:23;;;;;;;6.38;2.38;;;32.40;47.20;;;;;;5091690;28;20032;-74
2021/06/20 09:00:49;;;;;;;10.13;2.40;;;32.90;46.60;;;;;;5093535;28;20120;-76
2021/06/20 09:03:15;;;;;;;11.00;2.28;;;33.20;46.50;;;;;;5093266;28;20032;-77
2021/06/20 09:05:59;;;;;;;11.18;2.22;;;33.40;46.50;;;;;;5093758;28;20462;-76
2021/06/20 09:08:26;;;;;;;;;;;33.50;46.70;;;;;;5094088;28;20077;-76
2021/06/20 09:10:52;;;;;;;10.40;2.25;;;33.70;46.90;;;;;;5093214;28;19995;-77
2021/06/20 09:13:18;;;;;;;8.05;2.00;;;33.80;46.20;;;;;;5093555;28;20385;-76
2021/06/20 09:15:44;;;;;;;8.75;2.20;;;34.10;46.30;;;;;;5093273;28;20024;-77
2021/06/20 09:18:10;;;;;;;12.27;2.40;;;34.40;45.70;;;;;;5093952;28;20028;-75
2021/06/20 09:20:41;;;;;;;8.05;2.13;;;34.60;45.10;;;;;;5093654;28;20077;-75
2021/06/20 09:23:09;;;;;;;7.88;2.33;;;34.80;44.60;;;;;;5093349;28;20067;-75
2021/06/20 09:25:38;;;;;;;10.38;2.13;;;35.10;44.60;;;;;;5091842;28;20024;-75
2021/06/20 09:28:04;;;;;;;9.68;1.80;;;35.40;44.20;;;;;;5092040;28;20089;-75
2021/06/20 09:30:32;;;;;;;7.10;2.15;;;35.50;44.00;;;;;;5093381;28;20093;-76
2021/06/20 09:33:03;;;;;;;7.50;1.95;;;35.70;43.80;;;;;;5093284;28;20040;-77
2021/06/20 09:35:43;;;;;;;6.32;1.70;;;35.80;43.40;;;;;;5093362;28;20488;-75
2021/06/20 09:38:25;;;;;;;5.63;1.85;;;35.40;43.40;;;;;;5092128;28;20024;-76
2021/06/20 09:41:04;;;;;;;14.80;2.17;;;34.90;44.10;;;;;;5092612;28;20485;-76
2021/06/20 09:43:31;;;;;;;7.07;1.85;;;35.10;44.40;;;;;;5093105;28;20028;-75
2021/06/20 09:45:58;;;;;;;5.50;1.80;;;35.80;44.00;;;;;;5091902;28;20381;-78
2021/06/20 09:49:10;;;;;;;11.38;2.00;;;36.50;43.10;;;;;;5073332;28;20426;-80
2021/06/20 09:51:36;;;;;;;4.60;1.98;;;37.30;42.20;;;;;;5079201;28;20024;-75
2021/06/20 09:54:06;;;;;;;10.45;2.42;;;37.90;41.60;;;;;;5072929;28;20024;-77
2021/06/20 09:56:32;;;;;;;6.43;1.92;;;38.10;40.90;;;;;;5073520;28;20059;-76
2021/06/20 09:59:05;;;;;;;14.43;2.70;;;38.30;40.70;;;;;;5073093;28;20021;-76
2021/06/20 10:01:38;;;;;;;5.57;2.10;;;38.80;40.60;;;;;;5072882;28;20485;-76
2021/06/20 10:04:03;;;;;;;;;;;39.30;40.40;;;;;;5073193;28;20501;-76
2021/06/20 10:06:29;;;;;;;5.10;1.88;;;39.90;41.10;;;;;;5072496;28;19991;-76
2021/06/20 10:08:54;;;;;;;7.82;2.05;;;40.40;40.00;;;;;;5074923;28;20024;-76
2021/06/20 10:11:20;;;;;;;4.40;1.95;;;40.70;39.30;;;;;;5075890;28;20031;-76
2021/06/20 10:13:47;;;;;;;3.15;1.92;;;40.90;38.90;;;;;;5076597;28;20024;-76
2021/06/20 10:16:16;;;;;;;7.80;2.35;;;41.20;38.50;;;;;;5076555;28;20024;-77
2021/06/20 10:18:51;;;;;;;5.03;2.00;;;41.40;38.20;;;;;;5076520;28;20050;-76
2021/06/20 10:21:38;;;;;;;9.45;1.80;;;41.70;38.20;;;;;;5076277;28;20039;-77
2021/06/20 10:24:19;;;;;;;6.88;1.73;;;41.90;37.70;;;;;;5076077;28;20036;-76
2021/06/20 10:26:51;;;;;;;4.10;2.08;;;42.10;37.50;;;;;;5074439;28;20035;-76
2021/06/20 10:29:20;;;;;;;5.47;1.88;;;42.20;37.10;;;;;;5075918;28;20047;-76
2021/06/20 10:31:47;;;;;;;6.15;1.98;;;42.10;37.00;;;;;;5074787;28;20025;-76
2021/06/20 10:34:19;;;;;;;6.97;1.90;;;42.10;36.80;;;;;;5075553;28;20086;-80
2021/06/20 10:36:47;;;;;;;6.88;2.08;;;42.10;36.90;;;;;;5074854;28;20028;-76
2021/06/20 10:39:13;;;;;;;2.05;1.40;;;42.10;36.80;;;;;;5075783;28;20040;-76
2021/06/20 10:41:39;;;;;;;1.92;1.75;;;42.10;36.80;;;;;;5091169;28;20066;-76
2021/06/20 10:44:05;;;;;;;3.15;1.35;;;42.20;36.80;;;;;;5091082;28;20025;-75
2021/06/20 10:46:31;;;;;;;11.70;1.90;;;42.20;36.90;;;;;;5075772;28;20370;-76
2021/06/20 10:48:58;;;;;;;7.65;2.00;;;42.40;37.00;;;;;;5075641;28;20116;-76
2021/06/20 10:51:24;;;;;;;5.78;1.77;;;42.50;36.90;;;;;;5075653;28;20032;-76
2021/06/20 10:53:51;;;;;;;3.53;1.85;;;42.60;36.70;;;;;;5075574;28;20040;-75
2021/06/20 10:56:28;;;;;;;7.35;1.98;;;42.90;37.00;;;;;;5075701;28;20040;-76
2021/06/20 10:58:55;;;;;;;6.22;2.00;;;42.90;36.50;;;;;;5075571;28;20036;-76
2021/06/20 11:01:23;;;;;;;14.13;2.80;;;43.00;36.80;;;;;;5074257;28;20031;-76
2021/06/20 11:03:51;;;;;;;13.57;2.35;;;43.10;36.40;;;;;;5075567;28;20036;-75
2021/06/20 11:06:21;;;;;;;10.80;1.83;;;42.60;35.60;;;;;;5075884;28;20029;-75
2021/06/20 11:08:53;;;;;;;9.45;1.55;;;42.10;34.60;;;;;;5075063;28;20028;-75
2021/06/20 11:11:21;;;;;;;7.32;2.10;;;41.60;33.80;;;;;;5075118;28;20079;-76
2021/06/20 11:13:56;;;;;;;6.97;1.90;;;41.00;33.60;;;;;;5075409;28;20059;-76
2021/06/20 11:16:30;;;;;;;11.52;2.08;;;40.40;33.40;;;;;;5075001;28;20020;-75
2021/06/20 11:19:23;;;;;;;3.10;1.60;;;40.00;33.70;;;;;;5075047;28;20447;-75
2021/06/20 11:21:48;;;;;;;4.35;1.75;;;39.70;33.90;;;;;;5075288;28;20094;-75
2021/06/20 11:24:22;;;;;;;11.35;2.38;;;39.80;34.10;;;;;;5074783;28;20454;-76
2021/06/20 11:27:05;;;;;;;5.43;1.73;;;40.00;34.20;;;;;;5075005;28;20056;-75
2021/06/20 11:29:41;;;;;;;6.43;2.22;;;40.30;34.60;;;;;;5075135;28;20049;-75
2021/06/20 11:32:16;;;;;;;5.05;2.28;;;40.40;34.80;;;;;;5074557;28;20463;-75
2021/06/20 11:34:46;;;;;;;5.20;2.00;;;40.90;34.90;;;;;;5074995;28;20056;-75
2021/06/20 11:37:19;;;;;;;5.10;1.60;;;41.60;35.00;;;;;;5074729;28;20453;-77
2021/06/20 11:39:49;;;;;;;6.35;1.67;;;42.40;34.50;;;;;;5074215;28;20020;-76
2021/06/20 11:42:26;;;;;;;4.32;1.73;;;42.90;34.20;;;;;;5074590;28;20032;-76
2021/06/20 11:45:13;;;;;;;6.47;1.40;;;43.50;34.00;;;;;;5074440;28;20052;-76
2021/06/20 11:47:41;;;;;;;6.00;1.52;;;43.90;33.80;;;;;;5073446;28;20032;-75
2021/06/20 11:50:15;;;;;;;1.90;1.48;;;44.20;33.80;;;;;;5074390;28;20028;-75
2021/06/20 11:52:43;;;;;;;8.27;1.65;;;44.20;33.80;;;;;;5074039;28;20542;-76
2021/06/20 11:55:21;;;;;;;5.53;1.83;;;44.30;34.00;;;;;;5073396;28;20032;-77
2021/06/20 11:57:48;;;;;;;4.93;2.00;;;44.40;34.00;;;;;;5073729;28;20125;-75
2021/06/20 12:00:18;;;;;;;6.10;2.20;;;44.50;34.10;;;;;;5074157;28;20382;-76
2021/06/20 12:02:46;;;;;;;3.78;1.50;;;44.70;34.00;;;;;;5074306;28;20106;-76
2021/06/20 12:05:13;;;;;;;6.40;2.05;;;45.10;33.70;;;;;;5074063;28;20045;-76
2021/06/20 12:07:40;;;;;;;4.95;1.40;;;45.20;33.30;;;;;;5074309;28;20025;-76
2021/06/20 12:10:06;;;;;;;4.70;1.45;;;45.30;33.00;;;;;;5074309;28;20112;-76
2021/06/20 12:12:32;;;;;;;5.95;1.73;;;45.20;32.80;;;;;;5073982;28;20103;-75
2021/06/20 12:15:03;;;;;;;5.22;1.65;;;45.30;32.60;;;;;;5074270;28;20064;-76
2021/06/20 12:17:29;;;;;;;3.53;1.52;;;44.90;32.50;;;;;;5073934;28;20032;-76
2021/06/20 12:19:56;;;;;;;4.63;1.63;;;44.30;32.60;;;;;;5073802;28;20108;-77
2021/06/20 12:22:23;;;;;;;6.57;1.77;;;43.50;32.90;;;;;;5074221;28;20067;-76
2021/06/20 12:24:58;;;;;;;2.88;1.55;;;42.50;33.20;;;;;;5073883;28;20078;-76
2021/06/20 12:27:31;;;;;;;3.42;1.55;;;41.70;33.60;;;;;;5073099;28;20025;-76
2021/06/20 12:29:57;;;;;;;4.22;2.03;;;41.20;34.10;;;;;;5073702;28;20021;-76
2021/06/20 12:32:23;;;;;;;3.55;1.40;;;41.30;34.40;;;;;;5072380;28;20113;-76
2021/06/20 12:34:53;;;;;;;7.05;1.92;;;41.50;33.90;;;;;;5084890;28;20055;-76
2021/06/20 12:37:22;;;;;;;1.80;1.60;;;41.70;33.30;;;;;;5055665;28;20061;-76
2021/06/20 12:39:53;;;;;;;7.07;1.85;;;42.10;33.20;;;;;;5061700;28;20435;-76
2021/06/20 12:42:23;;;;;;;4.43;1.35;;;42.60;32.90;;;;;;5061822;28;20021;-75
2021/06/20 12:44:54;;;;;;;5.78;1.75;;;42.70;32.70;;;;;;5063363;28;20028;-75
2021/06/20 12:47:34;;;;;;;5.00;1.80;;;42.80;32.60;;;;;;5061769;28;20021;-76
2021/06/20 12:50:02;;;;;;;8.63;1.80;;;42.70;32.70;;;;;;5070102;28;20085;-76